Terminal Aerodrome Forecast
Issued by NWS Upton, NY

Home | Current Version | Previous Version | Text Only | Print | Product List | Glossary On
Versions: 1 2 3 4 5 6 7 8 9 10 11 12 13 14 15 16 17 18 19 20 21 22 23 24 25 26 27 28 29 30 31 32 33 34
000
FTUS41 KOKX 292340
TAFLGA
TAF
KLGA 292340Z 3000/3024 17008KT P6SM SCT250
     FM300900 17006KT 2SM BR SCT005 BKN010
     FM301300 18011KT P6SM SCT015
     FM301700 18016G23KT P6SM SCT035 SCT100=

USA.gov is the U.S. government's official web portal to all federal, state and local government web resources and services.